Texas City, Texas
Current Conditions -  °F | °C
As of 9:52 PM on Saturday 22 Nov 2014 (Local Time) from KGLS Reporting Station
Light Rain Light Rain  
Wind Chill: 66°   Ceiling: 6000
Heat Index: 66°   Visibility: 10mi
Dew Point: 65°   Wind: 17mph
Humidity: 96%   Direction: 130°SE
Pressure: 29.77"   Gusts: NA
Location:  29.39°N, 94.92°W
Report Text: KGLS 230352Z AUTO 13015KT 10SM -RA BKN060 BKN075 OVC100 19/18 A2977 RMK AO2 LTG DSNT ALQDS RAB0253 SLP081 P0003 T01890183
Loading
Personal Weather Stations






























Interactive Weather Map New forecast layout! Learn more

10-Day Weather Forecast

Advertisements
Track Severe Weather on mobile